createdAt,value
2023-08-07T00:02:01.594Z,13.65
2023-08-07T00:04:28.996Z,13.67
2023-08-07T00:06:55.650Z,13.62
2023-08-07T00:09:22.350Z,13.60
2023-08-07T00:11:49.336Z,13.64
2023-08-07T00:14:16.046Z,13.67
2023-08-07T00:16:42.902Z,13.68
2023-08-07T00:19:09.529Z,13.70
2023-08-07T00:21:36.985Z,13.73
2023-08-07T00:24:04.010Z,13.73
2023-08-07T00:26:33.222Z,13.68
2023-08-07T00:29:00.036Z,13.69
2023-08-07T00:31:26.980Z,13.67
2023-08-07T00:33:55.501Z,13.67
2023-08-07T00:36:23.430Z,13.69
2023-08-07T00:38:51.287Z,13.71
2023-08-07T00:41:19.473Z,13.69
2023-08-07T00:43:46.138Z,13.66
2023-08-07T00:46:13.115Z,13.62
2023-08-07T00:48:40.353Z,13.60
2023-08-07T00:51:09.069Z,13.63
2023-08-07T00:53:40.516Z,13.65
2023-08-07T00:56:08.444Z,13.63
2023-08-07T00:58:35.859Z,13.63
2023-08-07T01:01:03.767Z,13.58
2023-08-07T01:03:30.533Z,13.58
2023-08-07T01:05:57.482Z,13.53
2023-08-07T01:08:25.582Z,13.61
2023-08-07T01:11:04.382Z,13.54
2023-08-07T01:13:38.713Z,13.44
2023-08-07T01:16:12.050Z,13.40
2023-08-07T01:18:40.036Z,13.26
2023-08-07T01:21:06.703Z,13.23
2023-08-07T01:23:33.751Z,13.23
2023-08-07T01:26:00.437Z,13.24
2023-08-07T01:28:33.897Z,13.14
2023-08-07T01:31:05.170Z,13.13
2023-08-07T01:34:06.072Z,13.18
2023-08-07T01:36:33.373Z,13.19
2023-08-07T01:39:02.630Z,13.20
2023-08-07T01:41:31.148Z,13.15
2023-08-07T01:43:58.691Z,13.13
2023-08-07T01:46:25.330Z,13.16
2023-08-07T01:48:53.893Z,13.17
2023-08-07T01:51:20.620Z,13.23
2023-08-07T01:53:48.790Z,13.26
2023-08-07T01:56:15.453Z,13.29
2023-08-07T01:58:42.139Z,13.29
2023-08-07T02:01:08.869Z,13.28
2023-08-07T02:03:35.682Z,13.30
2023-08-07T02:06:03.148Z,13.34
2023-08-07T02:08:29.816Z,13.34
2023-08-07T02:10:56.447Z,13.37
2023-08-07T02:13:23.231Z,13.38
2023-08-07T02:15:49.973Z,13.45
2023-08-07T02:18:16.640Z,13.51
2023-08-07T02:20:43.326Z,13.55
2023-08-07T02:23:09.970Z,13.54
2023-08-07T02:25:36.668Z,13.53
2023-08-07T02:28:03.234Z,13.50
2023-08-07T02:30:31.463Z,13.53
2023-08-07T02:32:58.184Z,13.54
2023-08-07T02:35:24.953Z,13.56
2023-08-07T02:37:51.694Z,13.52
2023-08-07T02:40:19.960Z,13.54
2023-08-07T02:42:46.598Z,13.51
2023-08-07T02:45:13.272Z,13.52
2023-08-07T02:47:39.953Z,13.48
2023-08-07T02:50:07.115Z,13.50
2023-08-07T02:52:33.862Z,13.48
2023-08-07T02:55:00.621Z,13.48
2023-08-07T02:57:27.435Z,13.49
2023-08-07T02:59:54.050Z,13.50
2023-08-07T03:02:20.900Z,13.46
2023-08-07T03:04:47.612Z,13.43
2023-08-07T03:07:14.272Z,13.37
2023-08-07T03:09:41.054Z,13.40
2023-08-07T03:12:08.099Z,13.30
2023-08-07T03:14:35.754Z,13.25
2023-08-07T03:17:02.484Z,13.17
2023-08-07T03:19:29.202Z,13.09
2023-08-07T03:21:55.912Z,13.11
2023-08-07T03:24:22.650Z,13.01
2023-08-07T03:26:50.326Z,12.84
2023-08-07T03:29:17.124Z,12.72
2023-08-07T03:31:44.595Z,12.67
2023-08-07T03:34:12.029Z,12.68
2023-08-07T03:36:38.728Z,12.66
2023-08-07T03:39:05.862Z,12.68
2023-08-07T03:41:32.710Z,12.60
2023-08-07T03:44:00.192Z,12.60
2023-08-07T03:46:26.915Z,12.58
2023-08-07T03:48:53.609Z,12.57
2023-08-07T03:51:21.145Z,12.59
2023-08-07T03:53:51.496Z,12.58
2023-08-07T03:56:18.187Z,12.67
2023-08-07T03:58:45.374Z,12.71
2023-08-07T04:01:13.622Z,12.74
2023-08-07T04:03:41.389Z,12.76
2023-08-07T04:06:08.188Z,12.80
2023-08-07T04:08:34.986Z,12.81
2023-08-07T04:11:03.539Z,12.82
2023-08-07T04:13:30.398Z,12.82
2023-08-07T04:15:57.214Z,12.86
2023-08-07T04:18:24.088Z,12.92
2023-08-07T04:20:57.011Z,12.96
2023-08-07T04:23:24.288Z,12.95
2023-08-07T04:25:52.151Z,12.94
2023-08-07T04:28:19.235Z,13.00
2023-08-07T04:30:46.607Z,13.05
2023-08-07T04:33:13.897Z,13.09
2023-08-07T04:35:41.053Z,13.16
2023-08-07T04:38:07.768Z,13.20
2023-08-07T04:40:34.669Z,13.18
2023-08-07T04:43:01.909Z,13.22
2023-08-07T04:45:28.753Z,13.26
2023-08-07T04:47:55.447Z,13.27
2023-08-07T04:50:22.093Z,13.29
2023-08-07T04:52:48.792Z,13.33
2023-08-07T04:55:15.523Z,13.33
2023-08-07T04:57:42.309Z,13.26
2023-08-07T05:00:09.606Z,13.29
2023-08-07T05:02:36.467Z,13.35
2023-08-07T05:05:03.295Z,13.42
2023-08-07T05:07:29.890Z,13.37
2023-08-07T05:09:56.568Z,13.30
2023-08-07T05:12:23.954Z,13.26
2023-08-07T05:14:50.689Z,13.27
2023-08-07T05:17:17.361Z,13.30
2023-08-07T05:19:43.968Z,13.29
2023-08-07T05:22:10.688Z,13.35
2023-08-07T05:24:40.502Z,13.38
2023-08-07T05:27:09.522Z,13.46
2023-08-07T05:29:44.295Z,13.50
2023-08-07T05:32:15.792Z,13.46
2023-08-07T05:34:42.923Z,13.46
2023-08-07T05:37:09.854Z,13.49
2023-08-07T05:39:37.160Z,13.55
2023-08-07T05:42:04.543Z,13.61
2023-08-07T05:44:31.256Z,13.60
2023-08-07T05:46:58.023Z,13.64
2023-08-07T05:49:26.304Z,13.66
2023-08-07T05:51:54.413Z,13.63
2023-08-07T05:54:22.848Z,13.73
2023-08-07T05:56:50.460Z,13.78
2023-08-07T05:59:17.201Z,13.85
2023-08-07T06:01:43.864Z,13.88
2023-08-07T06:04:10.747Z,13.87
2023-08-07T06:06:40.300Z,13.89
2023-08-07T06:09:08.217Z,13.96
2023-08-07T06:11:35.450Z,13.96
2023-08-07T06:14:02.635Z,13.97
2023-08-07T06:16:29.460Z,13.96
2023-08-07T06:18:56.643Z,13.98
2023-08-07T06:21:23.304Z,14.02
2023-08-07T06:23:50.064Z,14.05
2023-08-07T06:26:16.742Z,14.14
2023-08-07T06:28:43.935Z,14.14
2023-08-07T06:31:12.234Z,14.20
2023-08-07T06:33:39.104Z,14.20
2023-08-07T06:36:07.399Z,14.20
2023-08-07T06:38:34.050Z,14.20
2023-08-07T06:41:01.833Z,14.16
2023-08-07T06:43:28.817Z,14.18
2023-08-07T06:45:56.924Z,14.23
2023-08-07T06:48:24.386Z,14.23
2023-08-07T06:50:52.186Z,14.25
2023-08-07T06:53:19.040Z,14.28
2023-08-07T06:55:46.279Z,14.35
2023-08-07T06:58:12.968Z,14.48
2023-08-07T07:00:39.666Z,14.67
2023-08-07T07:03:07.159Z,14.79
2023-08-07T07:05:34.013Z,14.85
2023-08-07T07:08:00.995Z,14.89
2023-08-07T07:10:27.773Z,14.93
2023-08-07T07:12:54.584Z,14.98
2023-08-07T07:15:21.225Z,14.96
2023-08-07T07:17:49.308Z,14.90
2023-08-07T07:20:16.046Z,14.75
2023-08-07T07:22:42.794Z,14.77
2023-08-07T07:25:09.997Z,14.80
2023-08-07T07:27:36.881Z,14.83
2023-08-07T07:30:03.722Z,14.90
2023-08-07T07:32:30.490Z,15.00
2023-08-07T07:34:57.176Z,14.98
2023-08-07T07:37:23.869Z,14.88
2023-08-07T07:39:50.627Z,14.86
2023-08-07T07:42:17.330Z,14.76
2023-08-07T07:44:43.950Z,14.82
2023-08-07T07:47:13.599Z,14.92
2023-08-07T07:49:45.431Z,14.94
2023-08-07T07:52:12.182Z,15.00
2023-08-07T07:54:38.846Z,15.01
2023-08-07T07:57:05.982Z,15.19
2023-08-07T07:59:32.694Z,15.25
2023-08-07T08:01:59.727Z,15.20
2023-08-07T08:04:26.668Z,15.34
2023-08-07T08:06:53.517Z,15.48
2023-08-07T08:09:20.662Z,15.63
2023-08-07T08:11:47.346Z,15.73
2023-08-07T08:14:14.022Z,15.73
2023-08-07T08:16:40.674Z,15.72
2023-08-07T08:19:09.299Z,15.80
2023-08-07T08:21:36.039Z,15.85
2023-08-07T08:24:02.881Z,15.86
2023-08-07T08:26:29.653Z,15.72
2023-08-07T08:28:56.468Z,15.58
2023-08-07T08:31:25.102Z,15.78
2023-08-07T08:33:51.882Z,15.94
2023-08-07T08:36:18.576Z,15.90
2023-08-07T08:38:47.809Z,15.92
2023-08-07T08:41:14.618Z,16.06
2023-08-07T08:43:44.268Z,16.05
2023-08-07T08:46:13.123Z,15.94
2023-08-07T08:48:41.610Z,15.95
2023-08-07T08:51:10.095Z,16.06
2023-08-07T08:53:37.137Z,16.27
2023-08-07T08:56:05.168Z,16.36
2023-08-07T08:58:32.385Z,16.42
2023-08-07T09:00:59.648Z,16.43
2023-08-07T09:03:27.402Z,16.45
2023-08-07T09:05:58.865Z,16.34
2023-08-07T09:08:28.282Z,16.29
2023-08-07T09:10:55.198Z,16.24
2023-08-07T09:13:25.612Z,16.20
2023-08-07T09:15:53.691Z,16.27
2023-08-07T09:18:23.714Z,16.27
2023-08-07T09:20:50.664Z,16.22
2023-08-07T09:23:20.168Z,16.23
2023-08-07T09:25:47.019Z,16.58
2023-08-07T09:28:14.233Z,16.62
2023-08-07T09:30:45.281Z,16.79
2023-08-07T09:33:12.191Z,16.60
2023-08-07T09:35:40.256Z,16.40
2023-08-07T09:38:08.539Z,16.58
2023-08-07T09:40:35.159Z,17.24
2023-08-07T09:43:03.412Z,17.88
2023-08-07T09:45:31.355Z,18.54
2023-08-07T09:47:59.920Z,18.16
2023-08-07T09:50:28.138Z,17.23
2023-08-07T09:52:56.761Z,16.70
2023-08-07T09:55:23.879Z,16.34
2023-08-07T09:57:51.299Z,16.20
2023-08-07T10:00:21.132Z,16.20
2023-08-07T10:02:51.993Z,17.16
2023-08-07T10:05:19.185Z,17.44
2023-08-07T10:07:47.931Z,17.13
2023-08-07T10:10:17.355Z,16.89
2023-08-07T10:12:47.207Z,16.75
2023-08-07T10:15:15.121Z,16.40
2023-08-07T10:17:42.555Z,16.20
2023-08-07T10:20:10.142Z,16.05
2023-08-07T10:22:39.676Z,16.19
2023-08-07T10:25:07.628Z,17.43
2023-08-07T10:27:37.804Z,17.91
2023-08-07T10:30:14.620Z,17.83
2023-08-07T10:32:45.515Z,17.34
2023-08-07T10:35:24.424Z,17.50
2023-08-07T10:37:53.310Z,18.53
2023-08-07T10:40:22.572Z,19.03
2023-08-07T10:42:56.108Z,20.13
2023-08-07T10:45:24.164Z,21.06
2023-08-07T10:48:03.908Z,21.80
2023-08-07T10:50:32.617Z,21.25
2023-08-07T10:53:05.529Z,20.53
2023-08-07T10:55:44.496Z,19.18
2023-08-07T10:58:24.296Z,17.45
2023-08-07T11:01:23.754Z,16.79
2023-08-07T11:04:01.305Z,16.35
2023-08-07T11:06:34.413Z,16.18
2023-08-07T11:09:02.162Z,16.58
2023-08-07T11:11:28.890Z,16.81
2023-08-07T11:13:55.541Z,16.71
2023-08-07T11:16:22.958Z,17.46
2023-08-07T11:18:53.156Z,18.04
2023-08-07T11:21:20.040Z,17.69
2023-08-07T11:23:47.882Z,17.37
2023-08-07T11:26:14.544Z,17.01
2023-08-07T11:28:41.252Z,16.66
2023-08-07T11:31:08.195Z,16.28
2023-08-07T11:33:36.933Z,16.10
2023-08-07T11:36:04.351Z,16.13
2023-08-07T11:38:32.575Z,16.10
2023-08-07T11:41:01.416Z,15.88
2023-08-07T11:43:32.002Z,15.91
2023-08-07T11:46:00.499Z,16.02
2023-08-07T11:48:31.780Z,15.59
2023-08-07T11:50:59.440Z,15.15
2023-08-07T11:53:28.589Z,14.87
2023-08-07T11:56:05.229Z,14.79
2023-08-07T11:58:41.828Z,14.80
2023-08-07T12:01:14.000Z,14.80
2023-08-07T12:03:44.405Z,14.81
2023-08-07T12:06:11.168Z,14.68
2023-08-07T12:08:39.634Z,14.51
2023-08-07T12:11:08.505Z,14.57
2023-08-07T12:13:38.875Z,14.74
2023-08-07T12:16:06.250Z,14.80
2023-08-07T12:18:33.601Z,15.08
2023-08-07T12:21:05.465Z,15.88
2023-08-07T12:23:34.616Z,16.97
2023-08-07T12:26:01.842Z,17.56
2023-08-07T12:28:28.506Z,17.75
2023-08-07T12:30:55.263Z,17.85
2023-08-07T12:33:21.927Z,17.36
2023-08-07T12:35:48.627Z,17.07
2023-08-07T12:38:15.913Z,17.14
2023-08-07T12:40:44.383Z,16.84
2023-08-07T12:43:11.519Z,16.79
2023-08-07T12:48:08.383Z,16.51
2023-08-07T12:50:35.825Z,16.45
2023-08-07T12:53:02.786Z,16.49
2023-08-07T12:55:30.648Z,17.14
2023-08-07T12:57:58.041Z,18.05
2023-08-07T13:00:26.503Z,18.56
2023-08-07T13:02:54.718Z,18.31
2023-08-07T13:05:22.932Z,17.82
2023-08-07T13:07:51.425Z,17.37
2023-08-07T13:10:18.635Z,16.92
2023-08-07T13:12:48.360Z,16.36
2023-08-07T13:15:16.571Z,15.76
2023-08-07T13:17:44.337Z,15.60
2023-08-07T13:20:14.182Z,15.67
2023-08-07T13:22:43.469Z,16.47
2023-08-07T13:25:12.031Z,17.42
2023-08-07T13:27:40.621Z,18.29
2023-08-07T13:30:09.635Z,19.23
2023-08-07T13:32:37.897Z,18.77
2023-08-07T13:35:06.029Z,18.16
2023-08-07T13:37:33.266Z,17.72
2023-08-07T13:40:00.140Z,17.48
2023-08-07T13:42:28.702Z,17.13
2023-08-07T13:44:59.283Z,16.82
2023-08-07T13:47:27.027Z,16.26
2023-08-07T13:49:59.304Z,15.94
2023-08-07T13:52:25.973Z,15.68
2023-08-07T13:54:52.791Z,15.46
2023-08-07T13:57:19.538Z,15.38
2023-08-07T13:59:47.412Z,15.24
2023-08-07T14:02:14.766Z,15.14
2023-08-07T14:04:41.468Z,15.24
2023-08-07T14:07:08.228Z,15.25
2023-08-07T14:09:34.823Z,15.16
2023-08-07T14:12:01.593Z,15.10
2023-08-07T14:14:30.048Z,14.86
2023-08-07T14:16:58.676Z,14.61
2023-08-07T14:19:25.663Z,14.28
2023-08-07T14:21:52.651Z,14.11
2023-08-07T14:24:19.384Z,14.06
2023-08-07T14:26:46.068Z,14.04
2023-08-07T14:29:14.174Z,13.95
2023-08-07T14:31:40.981Z,13.94
2023-08-07T14:34:08.713Z,14.07
2023-08-07T14:36:36.658Z,14.18
2023-08-07T14:39:03.536Z,14.37
2023-08-07T14:41:30.248Z,14.67
2023-08-07T14:43:57.628Z,14.87
2023-08-07T14:46:24.951Z,15.18
2023-08-07T14:48:51.693Z,15.28
2023-08-07T14:51:18.432Z,15.30
2023-08-07T14:53:45.204Z,15.18
2023-08-07T14:56:11.834Z,15.15
2023-08-07T14:58:38.534Z,15.04
2023-08-07T15:01:05.203Z,15.00
2023-08-07T15:03:32.166Z,15.09
2023-08-07T15:05:58.926Z,15.17
2023-08-07T15:08:25.800Z,15.07
2023-08-07T15:10:54.275Z,14.99
2023-08-07T15:13:21.352Z,14.85
2023-08-07T15:15:48.029Z,14.73
2023-08-07T15:18:14.774Z,14.79
2023-08-07T15:20:41.725Z,14.85
2023-08-07T15:23:08.955Z,14.76
2023-08-07T15:25:35.641Z,14.69
2023-08-07T15:28:04.099Z,14.55
2023-08-07T15:30:31.787Z,14.39
2023-08-07T15:32:58.640Z,14.23
2023-08-07T15:35:26.990Z,14.09
2023-08-07T15:37:53.823Z,14.10
2023-08-07T15:40:20.887Z,14.23
2023-08-07T15:42:50.887Z,14.26
2023-08-07T15:45:17.707Z,14.33
2023-08-07T15:47:44.521Z,14.23
2023-08-07T15:50:11.210Z,14.19
2023-08-07T15:52:38.105Z,14.14
2023-08-07T15:55:05.169Z,14.02
2023-08-07T15:57:31.825Z,13.85
2023-08-07T15:59:58.615Z,13.75
2023-08-07T16:02:25.539Z,13.65
2023-08-07T16:04:52.324Z,13.55
2023-08-07T16:07:19.133Z,13.47
2023-08-07T16:09:45.848Z,13.41
2023-08-07T16:12:13.933Z,13.37
2023-08-07T16:14:40.711Z,13.26
2023-08-07T16:17:08.651Z,13.23
2023-08-07T16:19:35.359Z,13.15
2023-08-07T16:22:02.797Z,13.09
2023-08-07T16:24:29.474Z,13.07
2023-08-07T16:26:56.629Z,13.16
2023-08-07T16:29:23.527Z,13.29
2023-08-07T16:31:51.888Z,13.34
2023-08-07T16:34:19.818Z,13.35
2023-08-07T16:36:46.513Z,13.41
2023-08-07T16:39:13.116Z,13.48
2023-08-07T16:41:41.714Z,13.56
2023-08-07T16:44:08.478Z,13.66
2023-08-07T16:46:35.068Z,13.71
2023-08-07T16:49:01.726Z,13.70
2023-08-07T16:51:28.436Z,13.66
2023-08-07T16:53:55.423Z,13.59
2023-08-07T16:56:22.064Z,13.56
2023-08-07T16:58:49.633Z,13.56
2023-08-07T17:01:16.938Z,13.59
2023-08-07T17:03:44.724Z,13.70
2023-08-07T17:06:11.501Z,13.63
2023-08-07T17:08:39.702Z,13.62
2023-08-07T17:11:06.322Z,13.64
2023-08-07T17:13:32.998Z,13.59
2023-08-07T17:15:59.694Z,13.53
2023-08-07T17:18:26.431Z,13.46
2023-08-07T17:20:53.020Z,13.42
2023-08-07T17:23:19.644Z,13.40
2023-08-07T17:25:46.979Z,13.44
2023-08-07T17:28:13.587Z,13.49
2023-08-07T17:30:40.282Z,13.45
2023-08-07T17:33:07.004Z,13.36
2023-08-07T17:35:35.424Z,13.37
2023-08-07T17:38:02.451Z,13.35
2023-08-07T17:40:29.178Z,13.29
2023-08-07T17:42:55.904Z,13.28
2023-08-07T17:45:22.913Z,13.26
2023-08-07T17:47:50.585Z,13.16
2023-08-07T17:50:17.371Z,13.11
2023-08-07T17:52:44.009Z,13.11
2023-08-07T17:55:12.879Z,13.22
2023-08-07T17:57:39.817Z,13.21
2023-08-07T18:00:08.720Z,13.19
2023-08-07T18:02:35.720Z,13.22
2023-08-07T18:05:04.420Z,13.16
2023-08-07T18:07:31.965Z,13.15
2023-08-07T18:09:58.779Z,13.13
2023-08-07T18:12:25.557Z,13.17
2023-08-07T18:14:53.013Z,13.12
2023-08-07T18:17:21.451Z,13.09
2023-08-07T18:19:48.092Z,13.16
2023-08-07T18:22:14.758Z,13.16
2023-08-07T18:24:41.420Z,13.20
2023-08-07T18:27:08.201Z,13.14
2023-08-07T18:29:35.310Z,13.06
2023-08-07T18:32:02.992Z,12.93
2023-08-07T18:34:29.686Z,12.83
2023-08-07T18:36:56.764Z,12.72
2023-08-07T18:39:23.777Z,12.69
2023-08-07T18:41:50.473Z,12.61
2023-08-07T18:44:17.917Z,12.57
2023-08-07T18:46:44.709Z,12.56
2023-08-07T18:49:11.976Z,12.50
2023-08-07T18:51:39.445Z,12.51
2023-08-07T18:54:06.778Z,12.47
2023-08-07T18:56:33.436Z,12.46
2023-08-07T18:59:04.306Z,12.45
2023-08-07T19:01:34.316Z,12.46
2023-08-07T19:04:02.597Z,12.42
2023-08-07T19:06:32.416Z,12.37
2023-08-07T19:08:59.685Z,12.34
2023-08-07T19:11:28.652Z,12.29
2023-08-07T19:13:56.940Z,12.30
2023-08-07T19:16:24.617Z,12.26
2023-08-07T19:18:51.297Z,12.24
2023-08-07T19:21:18.372Z,12.21
2023-08-07T19:23:45.073Z,12.23
2023-08-07T19:26:11.783Z,12.24
2023-08-07T19:28:40.973Z,12.28
2023-08-07T19:31:10.532Z,12.24
2023-08-07T19:33:37.263Z,12.24
2023-08-07T19:36:04.118Z,12.24
2023-08-07T19:38:30.774Z,12.24
2023-08-07T19:40:57.584Z,12.25
2023-08-07T19:43:24.421Z,12.25
2023-08-07T19:45:52.013Z,12.26
2023-08-07T19:48:18.904Z,12.27
2023-08-07T19:50:45.685Z,12.30
2023-08-07T19:53:12.404Z,12.31
2023-08-07T19:55:39.143Z,12.35
2023-08-07T19:58:05.953Z,12.42
2023-08-07T20:00:32.785Z,12.46
2023-08-07T20:03:00.204Z,12.47
2023-08-07T20:05:27.484Z,12.47
2023-08-07T20:07:54.810Z,12.50
2023-08-07T20:10:24.654Z,12.51
2023-08-07T20:12:52.392Z,12.50
2023-08-07T20:15:21.011Z,12.53
2023-08-07T20:17:49.896Z,12.55
2023-08-07T20:20:21.162Z,12.55
2023-08-07T20:22:48.479Z,12.55
2023-08-07T20:25:15.182Z,12.56
2023-08-07T20:27:41.941Z,12.55
2023-08-07T20:30:08.957Z,12.59
2023-08-07T20:32:35.652Z,12.69
2023-08-07T20:35:02.315Z,12.70
2023-08-07T20:37:29.023Z,12.68
2023-08-07T20:39:56.602Z,12.69
2023-08-07T20:42:23.238Z,12.72
2023-08-07T20:44:50.092Z,12.73
2023-08-07T20:47:16.836Z,12.78
2023-08-07T20:49:43.496Z,12.75
2023-08-07T20:52:10.201Z,12.74
2023-08-07T20:54:37.019Z,12.74
2023-08-07T20:57:04.066Z,12.74
2023-08-07T20:59:31.014Z,12.72
2023-08-07T21:01:57.913Z,12.69
2023-08-07T21:04:26.908Z,12.69
2023-08-07T21:06:54.124Z,12.65
2023-08-07T21:09:21.557Z,12.63
2023-08-07T21:11:48.224Z,12.64
2023-08-07T21:14:15.220Z,12.64
2023-08-07T21:16:45.157Z,12.65
2023-08-07T21:19:12.951Z,12.68
2023-08-07T21:21:40.056Z,12.67
2023-08-07T21:24:13.121Z,12.69
2023-08-07T21:26:41.523Z,12.70
2023-08-07T21:29:08.492Z,12.72
2023-08-07T21:31:35.701Z,12.69
2023-08-07T21:34:03.169Z,12.69
2023-08-07T21:36:29.790Z,12.71
2023-08-07T21:38:58.688Z,12.71
2023-08-07T21:41:25.571Z,12.72
2023-08-07T21:43:52.292Z,12.73
2023-08-07T21:46:20.535Z,12.69
2023-08-07T21:48:47.992Z,12.68
2023-08-07T21:51:14.695Z,12.67
2023-08-07T21:53:41.389Z,12.71
2023-08-07T21:56:07.961Z,12.74
2023-08-07T21:58:34.597Z,12.77
2023-08-07T22:01:02.102Z,12.77
2023-08-07T22:03:28.730Z,12.75
2023-08-07T22:05:55.380Z,12.72
2023-08-07T22:08:22.043Z,12.67
2023-08-07T22:10:48.699Z,12.59
2023-08-07T22:13:15.253Z,12.54
2023-08-07T22:15:42.012Z,12.47
2023-08-07T22:18:08.629Z,12.34
2023-08-07T22:20:35.304Z,12.31
2023-08-07T22:23:01.947Z,12.29
2023-08-07T22:25:28.541Z,12.27
2023-08-07T22:27:55.236Z,12.22
2023-08-07T22:30:22.501Z,12.24
2023-08-07T22:32:51.342Z,12.24
2023-08-07T22:35:18.882Z,12.28
2023-08-07T22:37:45.541Z,12.30
2023-08-07T22:40:12.658Z,12.26
2023-08-07T22:42:39.406Z,12.20
2023-08-07T22:45:06.305Z,12.16
2023-08-07T22:47:32.980Z,12.15
2023-08-07T22:49:59.606Z,12.10
2023-08-07T22:52:26.249Z,12.08
2023-08-07T22:54:52.907Z,12.03
2023-08-07T22:57:19.505Z,11.98
2023-08-07T22:59:46.180Z,11.93
2023-08-07T23:02:12.771Z,11.95
2023-08-07T23:04:39.401Z,11.92
2023-08-07T23:07:06.063Z,11.90
2023-08-07T23:09:32.634Z,11.87
2023-08-07T23:11:59.653Z,11.90
2023-08-07T23:14:26.444Z,11.91
2023-08-07T23:16:53.183Z,11.95
2023-08-07T23:19:19.815Z,11.96
2023-08-07T23:21:46.424Z,12.01
2023-08-07T23:24:13.001Z,12.00
2023-08-07T23:26:40.789Z,12.02
2023-08-07T23:29:07.402Z,12.04
2023-08-07T23:31:34.100Z,12.03
2023-08-07T23:34:00.866Z,11.98
2023-08-07T23:36:27.496Z,11.93
2023-08-07T23:38:54.520Z,11.86
2023-08-07T23:41:21.256Z,11.79
2023-08-07T23:43:48.174Z,11.83
2023-08-07T23:46:14.870Z,11.83
2023-08-07T23:48:41.657Z,11.81
2023-08-07T23:51:08.297Z,11.77
2023-08-07T23:53:34.949Z,11.69
2023-08-07T23:56:01.676Z,11.70
2023-08-07T23:58:28.391Z,11.68
